sensor_id;sensor_type;location;lat;lon;timestamp;P1;durP1;ratioP1;P2;durP2;ratioP2
51066;SDS011;37112;45.892;-123.962;2023-04-06T00:00:42;8.60;;;1.70;;
51066;SDS011;37112;45.892;-123.962;2023-04-06T00:02:54;8.10;;;1.60;;
51066;SDS011;37112;45.892;-123.962;2023-04-06T00:05:04;11.00;;;1.80;;
51066;SDS011;37112;45.892;-123.962;2023-04-06T00:07:15;5.90;;;1.60;;
51066;SDS011;37112;45.892;-123.962;2023-04-06T00:09:25;9.10;;;2.10;;
51066;SDS011;37112;45.892;-123.962;2023-04-06T00:11:35;6.60;;;1.90;;
51066;SDS011;37112;45.892;-123.962;2023-04-06T00:13:45;10.20;;;1.40;;
51066;SDS011;37112;45.892;-123.962;2023-04-06T00:15:55;5.00;;;1.20;;
51066;SDS011;37112;45.892;-123.962;2023-04-06T00:18:05;3.20;;;1.30;;
51066;SDS011;37112;45.892;-123.962;2023-04-06T00:20:16;5.90;;;1.20;;
51066;SDS011;37112;45.892;-123.962;2023-04-06T00:22:26;3.40;;;0.90;;
51066;SDS011;37112;45.892;-123.962;2023-04-06T00:24:36;4.80;;;0.70;;
51066;SDS011;37112;45.892;-123.962;2023-04-06T00:26:46;5.40;;;0.90;;
51066;SDS011;37112;45.892;-123.962;2023-04-06T00:28:56;2.10;;;1.00;;
51066;SDS011;37112;45.892;-123.962;2023-04-06T00:31:06;0.80;;;0.60;;
51066;SDS011;37112;45.892;-123.962;2023-04-06T00:33:16;4.00;;;0.60;;
51066;SDS011;37112;45.892;-123.962;2023-04-06T00:35:27;0.80;;;0.50;;
51066;SDS011;37112;45.892;-123.962;2023-04-06T00:37:37;0.80;;;0.40;;
51066;SDS011;37112;45.892;-123.962;2023-04-06T00:39:47;0.70;;;0.50;;
51066;SDS011;37112;45.892;-123.962;2023-04-06T00:41:58;2.50;;;0.50;;
51066;SDS011;37112;45.892;-123.962;2023-04-06T00:44:15;1.00;;;0.70;;
51066;SDS011;37112;45.892;-123.962;2023-04-06T00:46:24;7.10;;;1.40;;
51066;SDS011;37112;45.892;-123.962;2023-04-06T00:48:36;10.80;;;2.30;;
51066;SDS011;37112;45.892;-123.962;2023-04-06T00:50:46;8.20;;;1.90;;
51066;SDS011;37112;45.892;-123.962;2023-04-06T00:52:56;7.20;;;2.20;;
51066;SDS011;37112;45.892;-123.962;2023-04-06T00:55:07;7.40;;;1.20;;
51066;SDS011;37112;45.892;-123.962;2023-04-06T00:59:32;17.50;;;2.00;;
51066;SDS011;37112;45.892;-123.962;2023-04-06T01:01:44;10.50;;;2.40;;
51066;SDS011;37112;45.892;-123.962;2023-04-06T01:04:11;7.60;;;1.70;;
51066;SDS011;37112;45.892;-123.962;2023-04-06T01:06:21;3.90;;;1.20;;
51066;SDS011;37112;45.892;-123.962;2023-04-06T01:08:39;13.60;;;1.50;;
51066;SDS011;37112;45.892;-123.962;2023-04-06T01:10:54;7.00;;;1.10;;
51066;SDS011;37112;45.892;-123.962;2023-04-06T01:13:07;10.20;;;1.20;;
51066;SDS011;37112;45.892;-123.962;2023-04-06T01:15:38;11.20;;;1.20;;
51066;SDS011;37112;45.892;-123.962;2023-04-06T01:17:51;9.20;;;1.70;;
51066;SDS011;37112;45.892;-123.962;2023-04-06T01:20:01;5.30;;;1.30;;
51066;SDS011;37112;45.892;-123.962;2023-04-06T01:22:14;12.90;;;1.80;;
51066;SDS011;37112;45.892;-123.962;2023-04-06T01:24:33;12.60;;;2.40;;
51066;SDS011;37112;45.892;-123.962;2023-04-06T01:26:49;4.30;;;1.30;;
51066;SDS011;37112;45.892;-123.962;2023-04-06T01:28:59;6.20;;;1.90;;
51066;SDS011;37112;45.892;-123.962;2023-04-06T01:31:13;11.80;;;1.50;;
51066;SDS011;37112;45.892;-123.962;2023-04-06T01:33:27;14.60;;;1.70;;
51066;SDS011;37112;45.892;-123.962;2023-04-06T01:35:41;9.70;;;3.00;;
51066;SDS011;37112;45.892;-123.962;2023-04-06T01:37:56;6.20;;;1.50;;
51066;SDS011;37112;45.892;-123.962;2023-04-06T01:40:10;9.70;;;1.80;;
51066;SDS011;37112;45.892;-123.962;2023-04-06T01:42:25;7.90;;;1.40;;
51066;SDS011;37112;45.892;-123.962;2023-04-06T01:44:36;9.60;;;2.00;;
51066;SDS011;37112;45.892;-123.962;2023-04-06T01:46:50;5.00;;;1.60;;
51066;SDS011;37112;45.892;-123.962;2023-04-06T01:49:00;5.80;;;2.00;;
51066;SDS011;37112;45.892;-123.962;2023-04-06T01:51:16;8.50;;;2.10;;
51066;SDS011;37112;45.892;-123.962;2023-04-06T01:53:32;3.80;;;1.20;;
51066;SDS011;37112;45.892;-123.962;2023-04-06T01:55:43;6.50;;;1.50;;
51066;SDS011;37112;45.892;-123.962;2023-04-06T01:58:01;5.40;;;1.30;;
51066;SDS011;37112;45.892;-123.962;2023-04-06T02:00:15;3.40;;;1.10;;
51066;SDS011;37112;45.892;-123.962;2023-04-06T02:02:27;2.60;;;1.10;;
51066;SDS011;37112;45.892;-123.962;2023-04-06T02:04:42;4.90;;;1.40;;
51066;SDS011;37112;45.892;-123.962;2023-04-06T02:06:52;3.10;;;1.10;;
51066;SDS011;37112;45.892;-123.962;2023-04-06T02:09:04;11.90;;;1.80;;
51066;SDS011;37112;45.892;-123.962;2023-04-06T02:11:14;12.50;;;1.90;;
51066;SDS011;37112;45.892;-123.962;2023-04-06T02:13:27;7.50;;;2.00;;
51066;SDS011;37112;45.892;-123.962;2023-04-06T02:15:38;12.20;;;2.50;;
51066;SDS011;37112;45.892;-123.962;2023-04-06T02:17:48;16.80;;;2.60;;
51066;SDS011;37112;45.892;-123.962;2023-04-06T02:19:59;5.90;;;2.00;;
51066;SDS011;37112;45.892;-123.962;2023-04-06T02:22:09;8.40;;;1.90;;
51066;SDS011;37112;45.892;-123.962;2023-04-06T02:24:19;10.10;;;2.60;;
51066;SDS011;37112;45.892;-123.962;2023-04-06T02:26:30;9.30;;;2.10;;
51066;SDS011;37112;45.892;-123.962;2023-04-06T02:28:40;11.00;;;3.20;;
51066;SDS011;37112;45.892;-123.962;2023-04-06T02:30:50;8.00;;;1.60;;
51066;SDS011;37112;45.892;-123.962;2023-04-06T02:33:03;11.40;;;1.80;;
51066;SDS011;37112;45.892;-123.962;2023-04-06T02:35:20;9.40;;;1.40;;
51066;SDS011;37112;45.892;-123.962;2023-04-06T02:37:31;8.30;;;1.40;;
51066;SDS011;37112;45.892;-123.962;2023-04-06T02:39:41;6.50;;;1.20;;
51066;SDS011;37112;45.892;-123.962;2023-04-06T02:41:51;6.80;;;2.30;;
51066;SDS011;37112;45.892;-123.962;2023-04-06T02:44:03;13.50;;;4.20;;
51066;SDS011;37112;45.892;-123.962;2023-04-06T02:46:17;17.90;;;13.20;;
51066;SDS011;37112;45.892;-123.962;2023-04-06T02:48:27;6.50;;;3.60;;
51066;SDS011;37112;45.892;-123.962;2023-04-06T02:50:37;8.50;;;2.20;;
51066;SDS011;37112;45.892;-123.962;2023-04-06T02:52:48;13.70;;;2.20;;
51066;SDS011;37112;45.892;-123.962;2023-04-06T02:54:58;14.50;;;6.00;;
51066;SDS011;37112;45.892;-123.962;2023-04-06T02:57:09;9.10;;;4.60;;
51066;SDS011;37112;45.892;-123.962;2023-04-06T02:59:21;6.90;;;3.80;;
51066;SDS011;37112;45.892;-123.962;2023-04-06T03:01:38;8.90;;;5.20;;
51066;SDS011;37112;45.892;-123.962;2023-04-06T03:03:48;14.40;;;7.70;;
51066;SDS011;37112;45.892;-123.962;2023-04-06T03:06:02;7.80;;;3.10;;
51066;SDS011;37112;45.892;-123.962;2023-04-06T03:08:13;5.70;;;2.90;;
51066;SDS011;37112;45.892;-123.962;2023-04-06T03:10:23;5.20;;;2.50;;
51066;SDS011;37112;45.892;-123.962;2023-04-06T03:12:33;8.50;;;2.40;;
51066;SDS011;37112;45.892;-123.962;2023-04-06T03:15:01;6.40;;;2.40;;
51066;SDS011;37112;45.892;-123.962;2023-04-06T03:17:12;7.00;;;5.40;;
51066;SDS011;37112;45.892;-123.962;2023-04-06T03:19:22;4.60;;;2.90;;
51066;SDS011;37112;45.892;-123.962;2023-04-06T03:21:33;3.50;;;1.30;;
51066;SDS011;37112;45.892;-123.962;2023-04-06T03:23:43;7.00;;;2.00;;
51066;SDS011;37112;45.892;-123.962;2023-04-06T03:25:55;7.20;;;2.70;;
51066;SDS011;37112;45.892;-123.962;2023-04-06T03:28:07;7.00;;;3.10;;
51066;SDS011;37112;45.892;-123.962;2023-04-06T03:30:30;25.90;;;14.80;;
51066;SDS011;37112;45.892;-123.962;2023-04-06T03:32:41;16.10;;;8.80;;
51066;SDS011;37112;45.892;-123.962;2023-04-06T03:34:51;19.20;;;11.10;;
51066;SDS011;37112;45.892;-123.962;2023-04-06T03:37:02;16.30;;;9.90;;
51066;SDS011;37112;45.892;-123.962;2023-04-06T03:39:21;14.50;;;9.30;;
51066;SDS011;37112;45.892;-123.962;2023-04-06T03:41:31;12.40;;;6.00;;
51066;SDS011;37112;45.892;-123.962;2023-04-06T03:43:48;4.80;;;2.10;;
51066;SDS011;37112;45.892;-123.962;2023-04-06T03:45:58;4.70;;;2.20;;
51066;SDS011;37112;45.892;-123.962;2023-04-06T03:48:09;4.50;;;1.70;;
51066;SDS011;37112;45.892;-123.962;2023-04-06T03:50:20;5.50;;;3.70;;
51066;SDS011;37112;45.892;-123.962;2023-04-06T03:52:30;4.60;;;2.90;;
51066;SDS011;37112;45.892;-123.962;2023-04-06T03:54:40;7.00;;;3.90;;
51066;SDS011;37112;45.892;-123.962;2023-04-06T03:56:51;8.30;;;7.30;;
51066;SDS011;37112;45.892;-123.962;2023-04-06T03:59:04;3.90;;;1.60;;
51066;SDS011;37112;45.892;-123.962;2023-04-06T04:01:14;5.80;;;1.90;;
51066;SDS011;37112;45.892;-123.962;2023-04-06T04:03:24;4.20;;;1.40;;
51066;SDS011;37112;45.892;-123.962;2023-04-06T04:05:35;2.30;;;0.90;;
51066;SDS011;37112;45.892;-123.962;2023-04-06T04:07:45;4.60;;;1.80;;
51066;SDS011;37112;45.892;-123.962;2023-04-06T04:09:57;2.50;;;2.20;;
51066;SDS011;37112;45.892;-123.962;2023-04-06T04:12:08;5.00;;;1.20;;
51066;SDS011;37112;45.892;-123.962;2023-04-06T04:14:19;2.90;;;1.10;;
51066;SDS011;37112;45.892;-123.962;2023-04-06T04:16:29;4.60;;;1.00;;
51066;SDS011;37112;45.892;-123.962;2023-04-06T04:18:40;4.40;;;0.90;;
51066;SDS011;37112;45.892;-123.962;2023-04-06T04:20:51;7.20;;;1.70;;
51066;SDS011;37112;45.892;-123.962;2023-04-06T04:23:01;2.10;;;0.70;;
51066;SDS011;37112;45.892;-123.962;2023-04-06T04:25:12;1.80;;;0.90;;
51066;SDS011;37112;45.892;-123.962;2023-04-06T04:29:32;1.00;;;0.50;;
51066;SDS011;37112;45.892;-123.962;2023-04-06T04:31:45;0.50;;;0.50;;
51066;SDS011;37112;45.892;-123.962;2023-04-06T04:33:55;2.00;;;0.50;;
51066;SDS011;37112;45.892;-123.962;2023-04-06T04:36:09;0.60;;;0.60;;
51066;SDS011;37112;45.892;-123.962;2023-04-06T04:38:20;0.80;;;0.60;;
51066;SDS011;37112;45.892;-123.962;2023-04-06T04:40:32;2.00;;;1.20;;
51066;SDS011;37112;45.892;-123.962;2023-04-06T04:42:45;5.80;;;3.90;;
51066;SDS011;37112;45.892;-123.962;2023-04-06T04:45:10;0.60;;;0.60;;
51066;SDS011;37112;45.892;-123.962;2023-04-06T04:47:20;2.20;;;0.50;;
51066;SDS011;37112;45.892;-123.962;2023-04-06T04:49:30;0.80;;;0.40;;
51066;SDS011;37112;45.892;-123.962;2023-04-06T04:51:41;2.70;;;1.40;;
51066;SDS011;37112;45.892;-123.962;2023-04-06T04:54:00;0.70;;;0.70;;
51066;SDS011;37112;45.892;-123.962;2023-04-06T04:56:10;3.30;;;1.80;;
51066;SDS011;37112;45.892;-123.962;2023-04-06T04:58:21;0.50;;;0.50;;
51066;SDS011;37112;45.892;-123.962;2023-04-06T05:00:33;0.60;;;0.60;;
51066;SDS011;37112;45.892;-123.962;2023-04-06T05:02:43;0.50;;;0.50;;
51066;SDS011;37112;45.892;-123.962;2023-04-06T05:05:00;0.60;;;0.60;;
51066;SDS011;37112;45.892;-123.962;2023-04-06T05:07:11;0.70;;;0.50;;
51066;SDS011;37112;45.892;-123.962;2023-04-06T05:09:24;1.30;;;0.50;;
51066;SDS011;37112;45.892;-123.962;2023-04-06T05:11:34;0.50;;;0.50;;
51066;SDS011;37112;45.892;-123.962;2023-04-06T05:13:44;0.80;;;0.60;;
51066;SDS011;37112;45.892;-123.962;2023-04-06T05:15:57;1.00;;;0.70;;
51066;SDS011;37112;45.892;-123.962;2023-04-06T05:18:09;3.60;;;2.00;;
51066;SDS011;37112;45.892;-123.962;2023-04-06T05:20:19;1.20;;;0.60;;
51066;SDS011;37112;45.892;-123.962;2023-04-06T05:22:30;0.40;;;0.40;;
51066;SDS011;37112;45.892;-123.962;2023-04-06T05:24:44;6.50;;;3.30;;
51066;SDS011;37112;45.892;-123.962;2023-04-06T05:26:54;10.50;;;4.50;;
51066;SDS011;37112;45.892;-123.962;2023-04-06T05:29:04;2.30;;;1.00;;
51066;SDS011;37112;45.892;-123.962;2023-04-06T05:31:15;0.80;;;0.70;;
51066;SDS011;37112;45.892;-123.962;2023-04-06T05:33:27;9.00;;;3.90;;
51066;SDS011;37112;45.892;-123.962;2023-04-06T05:35:44;9.30;;;4.20;;
51066;SDS011;37112;45.892;-123.962;2023-04-06T05:37:55;6.70;;;2.60;;
51066;SDS011;37112;45.892;-123.962;2023-04-06T05:40:06;1.90;;;0.50;;
51066;SDS011;37112;45.892;-123.962;2023-04-06T05:42:17;0.40;;;0.40;;
51066;SDS011;37112;45.892;-123.962;2023-04-06T05:44:33;0.70;;;0.40;;
51066;SDS011;37112;45.892;-123.962;2023-04-06T05:46:48;0.40;;;0.40;;
51066;SDS011;37112;45.892;-123.962;2023-04-06T05:48:58;0.40;;;0.40;;
51066;SDS011;37112;45.892;-123.962;2023-04-06T05:51:11;0.50;;;0.50;;
51066;SDS011;37112;45.892;-123.962;2023-04-06T05:53:24;2.30;;;0.60;;
51066;SDS011;37112;45.892;-123.962;2023-04-06T05:55:37;0.60;;;0.40;;
51066;SDS011;37112;45.892;-123.962;2023-04-06T05:57:50;0.50;;;0.50;;
51066;SDS011;37112;45.892;-123.962;2023-04-06T06:00:00;0.50;;;0.40;;
51066;SDS011;37112;45.892;-123.962;2023-04-06T06:02:23;1.90;;;0.50;;
51066;SDS011;37112;45.892;-123.962;2023-04-06T06:04:33;1.10;;;0.60;;
51066;SDS011;37112;45.892;-123.962;2023-04-06T06:06:44;0.50;;;0.50;;
51066;SDS011;37112;45.892;-123.962;2023-04-06T06:09:03;0.40;;;0.40;;
51066;SDS011;37112;45.892;-123.962;2023-04-06T06:11:18;0.40;;;0.40;;
51066;SDS011;37112;45.892;-123.962;2023-04-06T06:13:29;2.70;;;0.80;;
51066;SDS011;37112;45.892;-123.962;2023-04-06T06:15:39;0.70;;;0.50;;
51066;SDS011;37112;45.892;-123.962;2023-04-06T06:17:51;0.70;;;0.50;;
51066;SDS011;37112;45.892;-123.962;2023-04-06T06:20:03;0.40;;;0.40;;
51066;SDS011;37112;45.892;-123.962;2023-04-06T06:22:14;4.40;;;2.10;;
51066;SDS011;37112;45.892;-123.962;2023-04-06T06:24:24;0.30;;;0.30;;
51066;SDS011;37112;45.892;-123.962;2023-04-06T06:28:45;0.40;;;0.40;;
51066;SDS011;37112;45.892;-123.962;2023-04-06T06:30:56;10.30;;;2.80;;
51066;SDS011;37112;45.892;-123.962;2023-04-06T06:33:07;0.50;;;0.40;;
51066;SDS011;37112;45.892;-123.962;2023-04-06T06:35:17;0.90;;;0.50;;
51066;SDS011;37112;45.892;-123.962;2023-04-06T06:37:27;0.60;;;0.40;;
51066;SDS011;37112;45.892;-123.962;2023-04-06T06:39:37;2.90;;;0.80;;
51066;SDS011;37112;45.892;-123.962;2023-04-06T06:41:47;5.70;;;2.30;;
51066;SDS011;37112;45.892;-123.962;2023-04-06T06:43:59;5.10;;;1.60;;
51066;SDS011;37112;45.892;-123.962;2023-04-06T06:46:13;0.60;;;0.30;;
51066;SDS011;37112;45.892;-123.962;2023-04-06T06:48:23;1.00;;;0.40;;
51066;SDS011;37112;45.892;-123.962;2023-04-06T06:50:33;7.00;;;2.20;;
51066;SDS011;37112;45.892;-123.962;2023-04-06T06:52:43;0.80;;;0.40;;
51066;SDS011;37112;45.892;-123.962;2023-04-06T06:54:53;0.60;;;0.40;;
51066;SDS011;37112;45.892;-123.962;2023-04-06T06:57:04;0.50;;;0.50;;
51066;SDS011;37112;45.892;-123.962;2023-04-06T06:59:17;0.60;;;0.50;;
51066;SDS011;37112;45.892;-123.962;2023-04-06T07:01:28;0.70;;;0.30;;
51066;SDS011;37112;45.892;-123.962;2023-04-06T07:03:39;1.40;;;0.50;;
51066;SDS011;37112;45.892;-123.962;2023-04-06T07:05:49;1.80;;;0.80;;
51066;SDS011;37112;45.892;-123.962;2023-04-06T07:08:01;0.50;;;0.40;;
51066;SDS011;37112;45.892;-123.962;2023-04-06T07:10:11;5.10;;;2.20;;
51066;SDS011;37112;45.892;-123.962;2023-04-06T07:12:22;1.70;;;0.60;;
51066;SDS011;37112;45.892;-123.962;2023-04-06T07:14:32;0.40;;;0.40;;
51066;SDS011;37112;45.892;-123.962;2023-04-06T07:16:42;0.30;;;0.30;;
51066;SDS011;37112;45.892;-123.962;2023-04-06T07:18:52;0.80;;;0.40;;
51066;SDS011;37112;45.892;-123.962;2023-04-06T07:21:03;0.30;;;0.30;;
51066;SDS011;37112;45.892;-123.962;2023-04-06T07:23:13;3.20;;;0.50;;
51066;SDS011;37112;45.892;-123.962;2023-04-06T07:25:23;1.00;;;0.50;;
51066;SDS011;37112;45.892;-123.962;2023-04-06T07:27:34;0.80;;;0.40;;
51066;SDS011;37112;45.892;-123.962;2023-04-06T07:29:44;1.00;;;0.50;;
51066;SDS011;37112;45.892;-123.962;2023-04-06T07:31:55;0.40;;;0.40;;
51066;SDS011;37112;45.892;-123.962;2023-04-06T07:34:05;0.30;;;0.30;;
51066;SDS011;37112;45.892;-123.962;2023-04-06T07:36:16;0.50;;;0.30;;
51066;SDS011;37112;45.892;-123.962;2023-04-06T07:38:27;3.10;;;1.40;;
51066;SDS011;37112;45.892;-123.962;2023-04-06T07:40:37;0.50;;;0.30;;
51066;SDS011;37112;45.892;-123.962;2023-04-06T07:42:47;2.90;;;0.40;;
51066;SDS011;37112;45.892;-123.962;2023-04-06T07:44:57;5.40;;;1.00;;
51066;SDS011;37112;45.892;-123.962;2023-04-06T07:47:07;2.10;;;0.40;;
51066;SDS011;37112;45.892;-123.962;2023-04-06T07:49:17;0.30;;;0.30;;
51066;SDS011;37112;45.892;-123.962;2023-04-06T07:51:29;0.30;;;0.30;;
51066;SDS011;37112;45.892;-123.962;2023-04-06T07:53:39;0.40;;;0.40;;
51066;SDS011;37112;45.892;-123.962;2023-04-06T07:55:49;0.50;;;0.40;;
51066;SDS011;37112;45.892;-123.962;2023-04-06T07:57:59;0.80;;;0.30;;
51066;SDS011;37112;45.892;-123.962;2023-04-06T08:00:10;0.30;;;0.30;;
51066;SDS011;37112;45.892;-123.962;2023-04-06T08:02:21;0.30;;;0.30;;
51066;SDS011;37112;45.892;-123.962;2023-04-06T08:04:32;0.30;;;0.30;;
51066;SDS011;37112;45.892;-123.962;2023-04-06T08:06:42;0.30;;;0.30;;
51066;SDS011;37112;45.892;-123.962;2023-04-06T08:08:52;0.90;;;0.40;;
51066;SDS011;37112;45.892;-123.962;2023-04-06T08:11:02;0.30;;;0.30;;
51066;SDS011;37112;45.892;-123.962;2023-04-06T08:13:12;0.40;;;0.40;;
51066;SDS011;37112;45.892;-123.962;2023-04-06T08:15:22;0.90;;;0.50;;
51066;SDS011;37112;45.892;-123.962;2023-04-06T08:17:32;0.40;;;0.40;;
51066;SDS011;37112;45.892;-123.962;2023-04-06T08:19:44;0.40;;;0.40;;
51066;SDS011;37112;45.892;-123.962;2023-04-06T08:21:54;4.30;;;1.30;;
51066;SDS011;37112;45.892;-123.962;2023-04-06T08:24:05;0.30;;;0.30;;
51066;SDS011;37112;45.892;-123.962;2023-04-06T08:26:15;0.40;;;0.40;;
51066;SDS011;37112;45.892;-123.962;2023-04-06T08:28:25;0.30;;;0.30;;
51066;SDS011;37112;45.892;-123.962;2023-04-06T08:30:36;0.30;;;0.30;;
51066;SDS011;37112;45.892;-123.962;2023-04-06T08:32:46;0.30;;;0.30;;
51066;SDS011;37112;45.892;-123.962;2023-04-06T08:34:56;1.30;;;0.50;;
51066;SDS011;37112;45.892;-123.962;2023-04-06T08:37:07;0.30;;;0.30;;
51066;SDS011;37112;45.892;-123.962;2023-04-06T08:39:16;0.30;;;0.30;;
51066;SDS011;37112;45.892;-123.962;2023-04-06T08:41:31;1.20;;;0.40;;
51066;SDS011;37112;45.892;-123.962;2023-04-06T08:43:43;7.10;;;2.40;;
51066;SDS011;37112;45.892;-123.962;2023-04-06T08:45:54;5.50;;;1.00;;
51066;SDS011;37112;45.892;-123.962;2023-04-06T08:48:06;2.10;;;0.60;;
51066;SDS011;37112;45.892;-123.962;2023-04-06T08:50:16;0.40;;;0.40;;
51066;SDS011;37112;45.892;-123.962;2023-04-06T08:52:27;0.40;;;0.40;;
51066;SDS011;37112;45.892;-123.962;2023-04-06T08:54:39;0.60;;;0.40;;
51066;SDS011;37112;45.892;-123.962;2023-04-06T08:56:49;0.70;;;0.40;;
51066;SDS011;37112;45.892;-123.962;2023-04-06T08:59:02;0.30;;;0.30;;
51066;SDS011;37112;45.892;-123.962;2023-04-06T09:01:13;0.40;;;0.40;;
51066;SDS011;37112;45.892;-123.962;2023-04-06T09:03:24;0.40;;;0.40;;
51066;SDS011;37112;45.892;-123.962;2023-04-06T09:07:46;0.50;;;0.40;;
51066;SDS011;37112;45.892;-123.962;2023-04-06T09:09:56;0.30;;;0.30;;
51066;SDS011;37112;45.892;-123.962;2023-04-06T09:12:07;0.30;;;0.30;;
51066;SDS011;37112;45.892;-123.962;2023-04-06T09:14:32;1.50;;;0.40;;
51066;SDS011;37112;45.892;-123.962;2023-04-06T09:16:43;1.20;;;0.30;;
51066;SDS011;37112;45.892;-123.962;2023-04-06T09:18:53;0.30;;;0.30;;
51066;SDS011;37112;45.892;-123.962;2023-04-06T09:21:11;0.60;;;0.40;;
51066;SDS011;37112;45.892;-123.962;2023-04-06T09:23:25;0.60;;;0.40;;
51066;SDS011;37112;45.892;-123.962;2023-04-06T09:25:35;0.30;;;0.30;;
51066;SDS011;37112;45.892;-123.962;2023-04-06T09:27:45;0.30;;;0.30;;
51066;SDS011;37112;45.892;-123.962;2023-04-06T09:30:01;0.30;;;0.30;;
51066;SDS011;37112;45.892;-123.962;2023-04-06T09:32:13;0.80;;;0.80;;
51066;SDS011;37112;45.892;-123.962;2023-04-06T09:34:23;0.30;;;0.30;;
51066;SDS011;37112;45.892;-123.962;2023-04-06T09:36:34;0.70;;;0.40;;
51066;SDS011;37112;45.892;-123.962;2023-04-06T09:38:53;0.30;;;0.30;;
51066;SDS011;37112;45.892;-123.962;2023-04-06T09:41:04;2.40;;;0.90;;
51066;SDS011;37112;45.892;-123.962;2023-04-06T09:43:24;0.30;;;0.30;;
51066;SDS011;37112;45.892;-123.962;2023-04-06T09:45:34;0.40;;;0.40;;
51066;SDS011;37112;45.892;-123.962;2023-04-06T09:47:45;0.70;;;0.60;;
51066;SDS011;37112;45.892;-123.962;2023-04-06T09:49:57;1.10;;;0.30;;
51066;SDS011;37112;45.892;-123.962;2023-04-06T09:52:08;0.80;;;0.50;;
51066;SDS011;37112;45.892;-123.962;2023-04-06T09:54:21;0.30;;;0.30;;
51066;SDS011;37112;45.892;-123.962;2023-04-06T09:56:37;0.80;;;0.30;;
51066;SDS011;37112;45.892;-123.962;2023-04-06T09:58:55;1.90;;;0.90;;
51066;SDS011;37112;45.892;-123.962;2023-04-06T10:01:09;0.60;;;0.30;;
51066;SDS011;37112;45.892;-123.962;2023-04-06T10:03:25;0.70;;;0.40;;
51066;SDS011;37112;45.892;-123.962;2023-04-06T10:05:45;0.30;;;0.30;;
51066;SDS011;37112;45.892;-123.962;2023-04-06T10:07:59;0.40;;;0.40;;
51066;SDS011;37112;45.892;-123.962;2023-04-06T10:10:14;0.40;;;0.30;;
51066;SDS011;37112;45.892;-123.962;2023-04-06T10:12:24;1.70;;;0.30;;
51066;SDS011;37112;45.892;-123.962;2023-04-06T10:14:35;0.30;;;0.30;;
51066;SDS011;37112;45.892;-123.962;2023-04-06T10:16:47;0.20;;;0.20;;
51066;SDS011;37112;45.892;-123.962;2023-04-06T10:18:58;0.20;;;0.20;;
51066;SDS011;37112;45.892;-123.962;2023-04-06T10:21:19;0.40;;;0.30;;
51066;SDS011;37112;45.892;-123.962;2023-04-06T10:23:32;0.30;;;0.30;;
51066;SDS011;37112;45.892;-123.962;2023-04-06T10:25:53;0.90;;;0.40;;
51066;SDS011;37112;45.892;-123.962;2023-04-06T10:28:06;0.30;;;0.30;;
51066;SDS011;37112;45.892;-123.962;2023-04-06T10:30:19;1.50;;;0.30;;
51066;SDS011;37112;45.892;-123.962;2023-04-06T10:32:33;0.30;;;0.30;;
51066;SDS011;37112;45.892;-123.962;2023-04-06T10:34:44;0.30;;;0.30;;
51066;SDS011;37112;45.892;-123.962;2023-04-06T10:36:54;0.30;;;0.30;;
51066;SDS011;37112;45.892;-123.962;2023-04-06T10:39:04;0.60;;;0.30;;
51066;SDS011;37112;45.892;-123.962;2023-04-06T10:41:16;0.30;;;0.30;;
51066;SDS011;37112;45.892;-123.962;2023-04-06T10:43:26;0.30;;;0.30;;
51066;SDS011;37112;45.892;-123.962;2023-04-06T10:45:43;1.10;;;0.40;;
51066;SDS011;37112;45.892;-123.962;2023-04-06T10:48:04;0.70;;;0.30;;
51066;SDS011;37112;45.892;-123.962;2023-04-06T10:50:22;0.30;;;0.30;;
51066;SDS011;37112;45.892;-123.962;2023-04-06T10:52:32;0.30;;;0.30;;
51066;SDS011;37112;45.892;-123.962;2023-04-06T10:54:42;0.30;;;0.30;;
51066;SDS011;37112;45.892;-123.962;2023-04-06T10:56:55;0.30;;;0.30;;
51066;SDS011;37112;45.892;-123.962;2023-04-06T10:59:05;0.30;;;0.30;;
51066;SDS011;37112;45.892;-123.962;2023-04-06T11:01:16;0.40;;;0.40;;
51066;SDS011;37112;45.892;-123.962;2023-04-06T11:03:27;0.50;;;0.30;;
51066;SDS011;37112;45.892;-123.962;2023-04-06T11:05:38;0.30;;;0.30;;
51066;SDS011;37112;45.892;-123.962;2023-04-06T11:07:52;0.50;;;0.40;;
51066;SDS011;37112;45.892;-123.962;2023-04-06T11:10:03;0.30;;;0.30;;
51066;SDS011;37112;45.892;-123.962;2023-04-06T11:12:26;0.30;;;0.30;;
51066;SDS011;37112;45.892;-123.962;2023-04-06T11:14:36;0.30;;;0.30;;
51066;SDS011;37112;45.892;-123.962;2023-04-06T11:16:47;1.10;;;0.40;;
51066;SDS011;37112;45.892;-123.962;2023-04-06T11:18:58;0.30;;;0.30;;
51066;SDS011;37112;45.892;-123.962;2023-04-06T11:21:08;0.20;;;0.20;;
51066;SDS011;37112;45.892;-123.962;2023-04-06T11:23:27;0.30;;;0.30;;
51066;SDS011;37112;45.892;-123.962;2023-04-06T11:25:38;0.30;;;0.30;;
51066;SDS011;37112;45.892;-123.962;2023-04-06T11:27:57;1.00;;;0.30;;
51066;SDS011;37112;45.892;-123.962;2023-04-06T11:30:09;0.30;;;0.30;;
51066;SDS011;37112;45.892;-123.962;2023-04-06T11:32:23;0.30;;;0.30;;
51066;SDS011;37112;45.892;-123.962;2023-04-06T11:34:34;0.60;;;0.40;;
51066;SDS011;37112;45.892;-123.962;2023-04-06T11:36:46;0.30;;;0.30;;
51066;SDS011;37112;45.892;-123.962;2023-04-06T11:38:57;1.20;;;0.50;;
51066;SDS011;37112;45.892;-123.962;2023-04-06T11:41:07;0.30;;;0.30;;
51066;SDS011;37112;45.892;-123.962;2023-04-06T11:43:17;0.30;;;0.30;;
51066;SDS011;37112;45.892;-123.962;2023-04-06T11:45:41;1.80;;;0.50;;
51066;SDS011;37112;45.892;-123.962;2023-04-06T11:47:56;0.80;;;0.30;;
51066;SDS011;37112;45.892;-123.962;2023-04-06T11:50:08;0.30;;;0.30;;
51066;SDS011;37112;45.892;-123.962;2023-04-06T11:52:20;0.30;;;0.30;;
51066;SDS011;37112;45.892;-123.962;2023-04-06T11:54:32;1.10;;;0.30;;
51066;SDS011;37112;45.892;-123.962;2023-04-06T11:58:53;0.50;;;0.30;;
51066;SDS011;37112;45.892;-123.962;2023-04-06T12:01:04;0.30;;;0.30;;
51066;SDS011;37112;45.892;-123.962;2023-04-06T12:03:14;0.30;;;0.30;;
51066;SDS011;37112;45.892;-123.962;2023-04-06T12:05:24;0.30;;;0.30;;
51066;SDS011;37112;45.892;-123.962;2023-04-06T12:07:34;0.30;;;0.30;;
51066;SDS011;37112;45.892;-123.962;2023-04-06T12:09:49;0.30;;;0.30;;
51066;SDS011;37112;45.892;-123.962;2023-04-06T12:11:59;0.30;;;0.30;;
51066;SDS011;37112;45.892;-123.962;2023-04-06T12:14:10;0.30;;;0.30;;
51066;SDS011;37112;45.892;-123.962;2023-04-06T12:16:21;0.30;;;0.30;;
51066;SDS011;37112;45.892;-123.962;2023-04-06T12:18:31;0.20;;;0.20;;
51066;SDS011;37112;45.892;-123.962;2023-04-06T12:20:41;0.30;;;0.30;;
51066;SDS011;37112;45.892;-123.962;2023-04-06T12:22:51;0.30;;;0.30;;
51066;SDS011;37112;45.892;-123.962;2023-04-06T12:25:01;0.30;;;0.30;;
51066;SDS011;37112;45.892;-123.962;2023-04-06T12:27:12;0.30;;;0.30;;
51066;SDS011;37112;45.892;-123.962;2023-04-06T12:29:23;0.30;;;0.30;;
51066;SDS011;37112;45.892;-123.962;2023-04-06T12:31:34;0.30;;;0.30;;
51066;SDS011;37112;45.892;-123.962;2023-04-06T12:33:47;0.30;;;0.30;;
51066;SDS011;37112;45.892;-123.962;2023-04-06T12:35:57;0.40;;;0.30;;
51066;SDS011;37112;45.892;-123.962;2023-04-06T12:38:08;0.30;;;0.30;;
51066;SDS011;37112;45.892;-123.962;2023-04-06T12:40:18;0.20;;;0.20;;
51066;SDS011;37112;45.892;-123.962;2023-04-06T12:42:28;0.30;;;0.30;;
51066;SDS011;37112;45.892;-123.962;2023-04-06T12:44:39;0.20;;;0.20;;
51066;SDS011;37112;45.892;-123.962;2023-04-06T12:46:49;0.30;;;0.30;;
51066;SDS011;37112;45.892;-123.962;2023-04-06T12:49:00;0.30;;;0.30;;
51066;SDS011;37112;45.892;-123.962;2023-04-06T12:51:10;0.30;;;0.30;;